createdAt,value
2023-01-15T00:07:34.177Z,98958.56
2023-01-15T00:17:35.513Z,98948.97
2023-01-15T00:27:39.898Z,98948.13
2023-01-15T00:37:41.179Z,98926.19
2023-01-15T00:47:42.543Z,98897.31
2023-01-15T00:57:43.861Z,98875.66
2023-01-15T01:07:45.133Z,98868.91
2023-01-15T01:17:46.593Z,98859.47
2023-01-15T01:27:47.869Z,98844.69
2023-01-15T01:37:49.185Z,98855.00
2023-01-15T01:47:50.460Z,98870.03
2023-01-15T01:57:51.805Z,98845.81
2023-01-15T02:07:53.096Z,98834.06
2023-01-15T02:17:54.383Z,98817.13
2023-01-15T02:27:55.680Z,98803.13
2023-01-15T02:37:56.962Z,98794.81
2023-01-15T02:47:58.222Z,98785.44
2023-01-15T02:57:59.604Z,98793.16
2023-01-15T03:08:00.875Z,98815.50
2023-01-15T03:18:02.289Z,98827.59
2023-01-15T03:28:03.561Z,98875.94
2023-01-15T03:38:04.843Z,98908.69
2023-01-15T03:48:06.112Z,98918.66
2023-01-15T03:58:07.367Z,98949.09
2023-01-15T04:08:08.619Z,98944.19
2023-01-15T04:18:10.077Z,98954.22
2023-01-15T04:28:12.973Z,98983.13
2023-01-15T04:38:14.322Z,98994.16
2023-01-15T04:48:15.613Z,99000.50
2023-01-15T04:58:16.907Z,99025.31
2023-01-15T05:08:18.180Z,99053.22
2023-01-15T05:18:19.461Z,99043.41
2023-01-15T05:28:20.737Z,99059.91
2023-01-15T05:38:21.997Z,99084.75
2023-01-15T05:48:23.258Z,99076.59
2023-01-15T05:58:24.509Z,99074.25
2023-01-15T06:08:25.820Z,99099.38
2023-01-15T06:18:27.107Z,99130.91
2023-01-15T06:28:28.465Z,99131.75
2023-01-15T06:38:29.756Z,99181.22
2023-01-15T06:48:31.044Z,99178.75
2023-01-15T06:58:32.332Z,99195.28
2023-01-15T07:08:33.625Z,99234.41
2023-01-15T07:18:34.980Z,99250.94
2023-01-15T07:28:36.483Z,99274.41
2023-01-15T07:38:37.753Z,99293.38
2023-01-15T07:48:57.584Z,99296.34
2023-01-15T07:58:58.841Z,99326.69
2023-01-15T08:09:00.100Z,99342.19
2023-01-15T08:19:01.480Z,99358.06
2023-01-15T08:29:02.742Z,99378.00
2023-01-15T08:39:04.031Z,99384.88
2023-01-15T08:49:06.556Z,99383.13
2023-01-15T08:59:10.747Z,99402.25
2023-01-15T09:09:12.063Z,99433.56
2023-01-15T09:19:14.114Z,99450.06
2023-01-15T09:29:15.458Z,99469.16
2023-01-15T09:39:16.742Z,99486.47
2023-01-15T09:49:18.040Z,99514.41
2023-01-15T09:59:19.347Z,99550.69
2023-01-15T10:09:20.621Z,99571.50
2023-01-15T10:19:22.045Z,99582.84
2023-01-15T10:29:23.297Z,99584.63
2023-01-15T10:39:24.590Z,99588.97
2023-01-15T10:49:25.868Z,99595.94
2023-01-15T10:59:27.140Z,99582.13
2023-01-15T11:09:32.461Z,99574.38
2023-01-15T11:19:42.705Z,99576.22
2023-01-15T11:29:43.981Z,99593.63
2023-01-15T11:39:45.270Z,99607.47
2023-01-15T11:50:05.110Z,99608.38
2023-01-15T12:00:06.452Z,99617.78
2023-01-15T12:10:07.971Z,99617.56
2023-01-15T12:20:09.435Z,99610.72
2023-01-15T12:30:10.814Z,99612.34
2023-01-15T12:40:12.143Z,99614.66
2023-01-15T12:50:13.441Z,99587.78
2023-01-15T13:00:14.786Z,99584.97
2023-01-15T13:10:16.106Z,99572.19
2023-01-15T13:20:17.435Z,99574.47
2023-01-15T13:30:18.701Z,99587.63
2023-01-15T13:40:19.972Z,99590.16
2023-01-15T13:50:21.294Z,99609.31
2023-01-15T14:00:22.599Z,99617.00
2023-01-15T14:10:23.920Z,99624.06
2023-01-15T14:20:25.195Z,99621.91
2023-01-15T14:30:29.293Z,99632.00
2023-01-15T14:40:30.655Z,99627.72
2023-01-15T14:50:33.671Z,99627.81
2023-01-15T15:00:35.180Z,99636.34
2023-01-15T15:10:36.483Z,99631.03
2023-01-15T15:20:38.029Z,99634.38
2023-01-15T15:30:39.310Z,99639.53
2023-01-15T15:40:40.657Z,99632.66
2023-01-15T15:50:41.982Z,99624.03
2023-01-15T16:00:43.338Z,99600.63
2023-01-15T16:10:44.645Z,99616.22
2023-01-15T16:20:45.969Z,99601.53
2023-01-15T16:30:47.269Z,99597.22
2023-01-15T16:40:48.559Z,99592.97
2023-01-15T16:50:49.815Z,99594.66
2023-01-15T17:00:51.105Z,99583.50
2023-01-15T17:10:52.451Z,99570.69
2023-01-15T17:20:53.804Z,99569.84
2023-01-15T17:30:55.112Z,99557.88
2023-01-15T17:40:57.717Z,99556.16
2023-01-15T17:50:58.979Z,99540.56
2023-01-15T18:01:19.166Z,99545.00
2023-01-15T18:11:20.530Z,99549.25
2023-01-15T18:21:21.886Z,99558.81
2023-01-15T18:31:23.295Z,99542.44
2023-01-15T18:41:36.796Z,99529.44
2023-01-15T18:51:38.114Z,99509.59
2023-01-15T19:01:39.531Z,99511.38
2023-01-15T19:11:41.679Z,99494.81
2023-01-15T19:21:43.122Z,99464.56
2023-01-15T19:31:44.486Z,99440.41
2023-01-15T19:42:04.569Z,99427.63
2023-01-15T19:52:44.650Z,99392.13
2023-01-15T20:02:46.001Z,99379.16
2023-01-15T20:13:06.708Z,99356.69
2023-01-15T20:23:08.061Z,99376.56
2023-01-15T20:33:09.878Z,99355.88
2023-01-15T20:43:29.804Z,99354.44
2023-01-15T20:53:33.329Z,99355.38
2023-01-15T21:03:34.652Z,99349.25
2023-01-15T21:13:36.540Z,99323.31
2023-01-15T21:23:37.869Z,99290.56
2023-01-15T21:33:39.923Z,99282.63
2023-01-15T21:44:00.302Z,99288.94
2023-01-15T21:54:01.586Z,99264.84
2023-01-15T22:04:02.900Z,99250.22
2023-01-15T22:14:04.191Z,99234.75
2023-01-15T22:24:05.599Z,99222.63
2023-01-15T22:34:06.937Z,99208.56
2023-01-15T22:44:08.274Z,99200.81
2023-01-15T22:54:09.599Z,99192.09
2023-01-15T23:04:10.873Z,99166.09
2023-01-15T23:14:12.208Z,99150.84
2023-01-15T23:24:13.595Z,99145.81
2023-01-15T23:34:15.171Z,99134.63
2023-01-15T23:44:35.439Z,99106.31
2023-01-15T23:54:36.781Z,99090.88
